createdAt,value
2023-01-15T00:00:03.055Z,10.02
2023-01-15T00:02:36.651Z,11.27
2023-01-15T00:05:07.249Z,12.63
2023-01-15T00:07:36.483Z,17.45
2023-01-15T00:10:06.831Z,16.05
2023-01-15T00:12:35.980Z,11.85
2023-01-15T00:15:06.461Z,17.98
2023-01-15T00:17:37.307Z,11.35
2023-01-15T00:20:07.671Z,18.85
2023-01-15T00:22:36.985Z,12.40
2023-01-15T00:25:30.529Z,12.98
2023-01-15T00:28:01.666Z,13.90
2023-01-15T00:30:31.616Z,9.25
2023-01-15T00:33:18.651Z,15.93
2023-01-15T00:35:50.782Z,10.30
2023-01-15T00:38:20.017Z,15.10
2023-01-15T00:40:53.001Z,14.73
2023-01-15T00:43:22.395Z,17.60
2023-01-15T00:45:52.462Z,11.38
2023-01-15T00:48:23.004Z,12.40
2023-01-15T00:50:52.469Z,14.38
2023-01-15T00:53:21.816Z,13.73
2023-01-15T00:55:51.334Z,12.20
2023-01-15T00:58:20.633Z,13.15
2023-01-15T01:00:56.085Z,8.85
2023-01-15T01:03:26.903Z,10.38
2023-01-15T01:06:00.711Z,11.23
2023-01-15T01:08:30.223Z,9.88
2023-01-15T01:11:07.307Z,11.88
2023-01-15T01:13:39.359Z,9.88
2023-01-15T01:16:25.464Z,12.18
2023-01-15T01:18:56.264Z,13.63
2023-01-15T01:21:26.211Z,9.13
2023-01-15T01:23:55.513Z,9.00
2023-01-15T01:26:25.024Z,10.30
2023-01-15T01:28:55.384Z,7.97
2023-01-15T01:31:25.585Z,11.25
2023-01-15T01:33:58.074Z,11.63
2023-01-15T01:36:30.526Z,10.85
2023-01-15T01:39:00.263Z,6.80
2023-01-15T01:41:30.620Z,6.20
2023-01-15T01:44:01.915Z,9.63
2023-01-15T01:46:33.988Z,10.70
2023-01-15T01:49:09.397Z,5.65
2023-01-15T01:54:14.316Z,7.82
2023-01-15T01:56:44.190Z,9.07
2023-01-15T01:59:13.924Z,8.55
2023-01-15T02:01:43.525Z,8.73
2023-01-15T02:04:15.816Z,4.88
2023-01-15T02:06:45.723Z,6.05
2023-01-15T02:09:15.167Z,8.98
2023-01-15T02:11:44.969Z,7.65
2023-01-15T02:14:20.360Z,8.60
2023-01-15T02:16:57.844Z,12.32
2023-01-15T02:19:42.227Z,6.38
2023-01-15T02:22:30.791Z,4.88
2023-01-15T02:25:12.505Z,9.02
2023-01-15T02:27:47.862Z,6.95
2023-01-15T02:30:23.269Z,6.82
2023-01-15T02:33:02.404Z,8.60
2023-01-15T02:35:39.428Z,6.72
2023-01-15T02:38:16.430Z,9.00
2023-01-15T02:40:52.061Z,5.47
2023-01-15T02:43:28.939Z,6.77
2023-01-15T02:46:02.615Z,5.45
2023-01-15T02:48:34.924Z,11.18
2023-01-15T02:51:10.005Z,7.53
2023-01-15T02:53:44.040Z,4.53
2023-01-15T02:56:17.290Z,8.02
2023-01-15T02:58:56.399Z,6.22
2023-01-15T03:01:29.397Z,5.07
2023-01-15T03:04:09.958Z,5.82
2023-01-15T03:06:45.202Z,5.45
2023-01-15T03:11:50.729Z,5.40
2023-01-15T03:14:28.181Z,9.32
2023-01-15T03:17:00.583Z,7.10
2023-01-15T03:19:34.870Z,3.92
2023-01-15T03:22:10.867Z,7.55
2023-01-15T03:24:49.875Z,4.43
2023-01-15T03:27:21.179Z,8.27
2023-01-15T03:34:17.097Z,3.53
2023-01-15T03:36:46.637Z,7.07
2023-01-15T03:39:15.910Z,5.00
2023-01-15T03:42:11.838Z,5.10
2023-01-15T03:44:47.067Z,4.30
2023-01-15T03:47:32.868Z,4.50
2023-01-15T03:50:08.797Z,4.53
2023-01-15T03:52:49.666Z,6.07
2023-01-15T03:55:24.819Z,7.53
2023-01-15T03:58:12.423Z,3.22
2023-01-15T04:00:49.017Z,4.45
2023-01-15T04:03:24.230Z,6.20
2023-01-15T04:05:56.133Z,4.95
2023-01-15T04:08:28.518Z,6.07
2023-01-15T04:10:59.852Z,4.75
2023-01-15T04:13:33.451Z,11.63
2023-01-15T04:16:03.593Z,4.40
2023-01-15T04:18:34.950Z,7.25
2023-01-15T04:21:05.500Z,3.60
2023-01-15T04:23:37.080Z,5.78
2023-01-15T04:26:07.750Z,6.22
2023-01-15T04:28:37.337Z,5.35
2023-01-15T04:31:06.730Z,6.47
2023-01-15T04:33:39.230Z,5.35
2023-01-15T04:36:09.972Z,5.65
2023-01-15T04:38:39.597Z,5.45
2023-01-15T04:41:26.532Z,5.35
2023-01-15T04:44:08.098Z,5.80
2023-01-15T04:46:39.845Z,7.93
2023-01-15T04:49:13.218Z,4.38
2023-01-15T04:51:42.616Z,2.85
2023-01-15T04:54:13.890Z,5.95
2023-01-15T04:56:45.844Z,3.15
2023-01-15T04:59:16.097Z,6.30
2023-01-15T05:02:02.054Z,6.22
2023-01-15T05:04:34.700Z,4.47
2023-01-15T05:07:04.645Z,4.15
2023-01-15T05:09:34.360Z,7.85
2023-01-15T05:12:03.971Z,6.22
2023-01-15T05:14:33.541Z,5.25
2023-01-15T05:17:02.751Z,4.28
2023-01-15T05:19:33.700Z,6.45
2023-01-15T05:22:03.002Z,4.68
2023-01-15T05:24:32.433Z,3.38
2023-01-15T05:27:02.401Z,5.07
2023-01-15T05:29:31.796Z,4.95
2023-01-15T05:32:00.954Z,4.70
2023-01-15T05:34:30.345Z,3.58
2023-01-15T05:37:00.886Z,4.68
2023-01-15T05:39:30.269Z,3.42
2023-01-15T05:41:59.455Z,3.75
2023-01-15T05:44:30.921Z,2.97
2023-01-15T05:47:05.834Z,2.25
2023-01-15T05:49:36.068Z,3.35
2023-01-15T05:52:06.900Z,2.35
2023-01-15T05:54:37.267Z,5.00
2023-01-15T05:57:06.563Z,2.97
2023-01-15T05:59:36.007Z,5.25
2023-01-15T06:02:05.227Z,4.30
2023-01-15T06:04:34.723Z,2.97
2023-01-15T06:07:05.274Z,1.75
2023-01-15T06:09:34.734Z,5.35
2023-01-15T06:12:04.039Z,4.13
2023-01-15T06:14:33.469Z,2.70
2023-01-15T06:17:02.660Z,2.40
2023-01-15T06:19:32.300Z,2.00
2023-01-15T06:22:01.764Z,1.92
2023-01-15T06:24:32.616Z,5.53
2023-01-15T06:27:01.751Z,1.92
2023-01-15T06:29:31.188Z,3.10
2023-01-15T06:32:00.487Z,3.05
2023-01-15T06:34:29.885Z,1.83
2023-01-15T06:36:59.028Z,2.55
2023-01-15T06:39:28.546Z,2.42
2023-01-15T06:42:16.468Z,1.90
2023-01-15T06:45:03.829Z,2.75
2023-01-15T06:47:33.479Z,2.22
2023-01-15T06:50:03.164Z,2.33
2023-01-15T06:52:32.285Z,2.35
2023-01-15T06:55:01.799Z,2.63
2023-01-15T06:57:32.435Z,2.97
2023-01-15T07:00:01.938Z,5.68
2023-01-15T07:02:31.127Z,4.07
2023-01-15T07:05:00.868Z,3.17
2023-01-15T07:07:31.241Z,3.70
2023-01-15T07:10:00.694Z,2.00
2023-01-15T07:12:31.607Z,2.05
2023-01-15T07:15:01.046Z,1.63
2023-01-15T07:17:30.211Z,1.88
2023-01-15T07:19:59.637Z,1.73
2023-01-15T07:22:28.870Z,2.17
2023-01-15T07:24:58.430Z,1.77
2023-01-15T07:27:27.578Z,3.00
2023-01-15T07:29:58.523Z,2.25
2023-01-15T07:32:27.680Z,2.58
2023-01-15T07:34:57.071Z,5.18
2023-01-15T07:37:28.535Z,2.80
2023-01-15T07:39:58.565Z,2.78
2023-01-15T07:42:45.013Z,3.60
2023-01-15T07:45:33.186Z,4.25
2023-01-15T07:48:19.990Z,3.42
2023-01-15T07:50:49.606Z,3.95
2023-01-15T07:53:18.786Z,2.35
2023-01-15T07:55:48.292Z,2.00
2023-01-15T07:58:17.498Z,1.63
2023-01-15T08:00:48.471Z,3.15
2023-01-15T08:03:17.639Z,3.05
2023-01-15T08:05:47.070Z,2.17
2023-01-15T08:08:19.676Z,7.68
2023-01-15T08:11:03.121Z,5.68
2023-01-15T08:13:50.294Z,9.48
2023-01-15T08:16:21.605Z,20.15
2023-01-15T08:18:50.793Z,6.32
2023-01-15T08:21:21.579Z,1.58
2023-01-15T08:23:51.156Z,1.70
2023-01-15T08:26:20.862Z,0.60
2023-01-15T08:28:50.086Z,0.47
2023-01-15T08:31:21.033Z,0.88
2023-01-15T08:33:50.382Z,0.85
2023-01-15T08:36:21.160Z,2.15
2023-01-15T08:38:51.432Z,3.40
2023-01-15T08:41:20.845Z,0.93
2023-01-15T08:43:50.015Z,2.22
2023-01-15T08:46:20.974Z,1.02
2023-01-15T08:48:50.484Z,1.30
2023-01-15T08:51:20.528Z,0.88
2023-01-15T08:53:49.610Z,2.22
2023-01-15T08:56:20.730Z,1.27
2023-01-15T08:58:49.895Z,1.65
2023-01-15T09:01:23.743Z,1.75
2023-01-15T09:03:53.036Z,2.97
2023-01-15T09:06:22.538Z,1.83
2023-01-15T09:08:51.745Z,1.67
2023-01-15T09:11:21.869Z,1.95
2023-01-15T09:13:51.802Z,1.45
2023-01-15T09:16:22.634Z,4.63
2023-01-15T09:18:51.764Z,2.00
2023-01-15T09:21:21.385Z,5.15
2023-01-15T09:23:50.598Z,4.45
2023-01-15T09:26:29.071Z,3.33
2023-01-15T09:28:58.325Z,2.05
2023-01-15T09:31:29.813Z,2.03
2023-01-15T09:33:59.699Z,6.00
2023-01-15T09:36:30.604Z,2.47
2023-01-15T09:39:01.341Z,4.93
2023-01-15T09:42:08.631Z,4.20
2023-01-15T09:45:07.333Z,2.83
2023-01-15T09:47:44.848Z,6.93
2023-01-15T09:50:24.927Z,5.28
2023-01-15T09:53:23.977Z,7.75
2023-01-15T09:55:56.006Z,9.25
2023-01-15T09:58:33.792Z,11.75
2023-01-15T10:01:04.228Z,9.18
2023-01-15T10:03:43.541Z,6.45
2023-01-15T10:06:18.974Z,19.48
2023-01-15T10:11:53.329Z,21.92
2023-01-15T10:14:44.840Z,10.88
2023-01-15T10:17:26.156Z,12.85
2023-01-15T10:19:58.417Z,10.80
2023-01-15T10:22:44.044Z,7.43
2023-01-15T10:25:18.879Z,11.52
2023-01-15T10:27:51.963Z,5.32
2023-01-15T10:30:37.095Z,6.10
2023-01-15T10:33:21.825Z,7.57
2023-01-15T10:35:59.862Z,6.95
2023-01-15T10:38:33.747Z,4.65
2023-01-15T10:41:17.808Z,6.60
2023-01-15T10:43:54.973Z,4.07
2023-01-15T10:46:28.043Z,2.42
2023-01-15T10:49:01.167Z,8.70
2023-01-15T10:51:36.580Z,3.70
2023-01-15T10:54:12.013Z,6.32
2023-01-15T10:59:22.374Z,3.72
2023-01-15T11:01:55.208Z,3.58
2023-01-15T11:04:24.789Z,3.53
2023-01-15T11:06:55.683Z,4.00
2023-01-15T11:09:32.374Z,2.60
2023-01-15T11:12:35.635Z,2.72
2023-01-15T11:15:34.229Z,8.68
2023-01-15T11:18:21.945Z,5.80
2023-01-15T11:20:51.845Z,8.10
2023-01-15T11:23:23.618Z,5.60
2023-01-15T11:25:55.364Z,3.47
2023-01-15T11:28:35.409Z,3.10
2023-01-15T11:31:05.115Z,5.18
2023-01-15T11:33:34.953Z,4.70
2023-01-15T11:36:07.481Z,5.05
2023-01-15T11:38:47.823Z,4.22
2023-01-15T11:41:23.747Z,2.10
2023-01-15T11:44:14.872Z,2.45
2023-01-15T11:47:04.447Z,3.97
2023-01-15T11:49:51.424Z,10.40
2023-01-15T11:52:24.727Z,17.80
2023-01-15T11:54:57.904Z,6.63
2023-01-15T11:57:29.802Z,7.95
2023-01-15T12:00:00.434Z,3.88
2023-01-15T12:02:38.099Z,4.15
2023-01-15T12:05:16.506Z,4.28
2023-01-15T12:07:47.550Z,3.17
2023-01-15T12:10:43.066Z,2.15
2023-01-15T12:13:24.262Z,1.70
2023-01-15T12:16:02.374Z,1.70
2023-01-15T12:18:57.872Z,1.73
2023-01-15T12:21:40.495Z,2.33
2023-01-15T12:24:25.117Z,1.67
2023-01-15T12:27:07.686Z,2.78
2023-01-15T12:29:45.307Z,2.35
2023-01-15T12:32:19.968Z,9.35
2023-01-15T12:34:54.505Z,9.10
2023-01-15T12:37:27.531Z,8.90
2023-01-15T12:40:06.227Z,3.78
2023-01-15T12:42:56.735Z,6.43
2023-01-15T12:45:30.226Z,4.43
2023-01-15T12:48:06.676Z,4.40
2023-01-15T12:50:44.828Z,7.82
2023-01-15T12:53:19.047Z,3.15
2023-01-15T12:55:56.967Z,3.10
2023-01-15T12:58:40.608Z,2.78
2023-01-15T13:01:17.916Z,4.22
2023-01-15T13:04:01.241Z,2.80
2023-01-15T13:06:31.988Z,5.43
2023-01-15T13:09:10.326Z,3.20
2023-01-15T13:11:39.477Z,2.22
2023-01-15T13:14:16.903Z,2.75
2023-01-15T13:16:54.009Z,2.78
2023-01-15T13:19:33.446Z,3.58
2023-01-15T13:22:07.321Z,4.70
2023-01-15T13:25:12.141Z,3.00
2023-01-15T13:27:55.735Z,6.88
2023-01-15T13:30:47.849Z,8.30
2023-01-15T13:33:26.373Z,6.07
2023-01-15T13:36:02.227Z,2.10
2023-01-15T13:38:38.104Z,3.22
2023-01-15T13:41:12.395Z,5.45
2023-01-15T13:43:44.979Z,3.97
2023-01-15T13:46:22.343Z,3.67
2023-01-15T13:48:53.203Z,2.28
2023-01-15T13:51:31.621Z,3.72
2023-01-15T13:54:02.831Z,2.95
2023-01-15T13:56:36.209Z,3.25
2023-01-15T13:59:07.423Z,3.20
2023-01-15T14:01:39.099Z,3.92
2023-01-15T14:04:15.421Z,4.28
2023-01-15T14:06:46.235Z,3.22
2023-01-15T14:09:29.573Z,5.03
2023-01-15T14:12:12.223Z,5.82
2023-01-15T14:15:17.439Z,4.28
2023-01-15T14:18:19.123Z,3.30
2023-01-15T14:21:04.401Z,4.70
2023-01-15T14:23:59.266Z,5.15
2023-01-15T14:26:42.153Z,4.70
2023-01-15T14:29:41.318Z,5.70
2023-01-15T14:32:17.705Z,9.60
2023-01-15T14:34:58.293Z,7.63
2023-01-15T14:37:31.691Z,4.60
2023-01-15T14:40:04.078Z,5.63
2023-01-15T14:42:54.019Z,11.15
2023-01-15T14:45:29.565Z,11.48
2023-01-15T14:48:00.189Z,9.40
2023-01-15T14:50:34.924Z,7.40
2023-01-15T14:53:16.696Z,10.75
2023-01-15T14:55:50.141Z,6.85
2023-01-15T14:58:38.917Z,8.23
2023-01-15T15:01:20.235Z,6.15
2023-01-15T15:03:55.129Z,6.97
2023-01-15T15:06:29.151Z,5.20
2023-01-15T15:09:04.932Z,8.43
2023-01-15T15:11:58.052Z,7.63
2023-01-15T15:14:30.037Z,6.90
2023-01-15T15:17:02.278Z,6.95
2023-01-15T15:19:36.869Z,4.97
2023-01-15T15:22:11.779Z,8.55
2023-01-15T15:24:48.906Z,5.57
2023-01-15T15:27:19.208Z,3.63
2023-01-15T15:29:48.903Z,6.60
2023-01-15T15:32:20.929Z,7.75
2023-01-15T15:34:51.951Z,5.82
2023-01-15T15:37:26.094Z,12.70
2023-01-15T15:39:59.339Z,7.50
2023-01-15T15:42:51.129Z,15.95
2023-01-15T15:45:44.815Z,10.02
2023-01-15T15:48:37.406Z,7.00
2023-01-15T15:51:24.171Z,4.95
2023-01-15T15:54:05.392Z,10.60
2023-01-15T15:56:36.243Z,5.85
2023-01-15T15:59:06.435Z,3.92
2023-01-15T16:01:40.037Z,7.10
2023-01-15T16:04:18.945Z,7.68
2023-01-15T16:06:48.682Z,10.50
2023-01-15T16:09:24.373Z,9.27
2023-01-15T16:11:55.672Z,8.02
2023-01-15T16:14:36.184Z,6.32
2023-01-15T16:17:05.485Z,8.70
2023-01-15T16:19:35.214Z,9.15
2023-01-15T16:22:06.704Z,9.00
2023-01-15T16:24:37.661Z,7.68
2023-01-15T16:27:09.443Z,4.63
2023-01-15T16:29:39.006Z,7.97
2023-01-15T16:32:15.563Z,7.03
2023-01-15T16:34:45.434Z,11.65
2023-01-15T16:37:27.193Z,12.35
2023-01-15T16:40:01.006Z,7.85
2023-01-15T16:42:35.259Z,9.00
2023-01-15T16:45:09.105Z,23.20
2023-01-15T16:47:38.552Z,11.93
2023-01-15T16:50:29.093Z,9.65
2023-01-15T16:53:00.568Z,14.63
2023-01-15T16:55:43.228Z,7.30
2023-01-15T16:58:18.527Z,6.57
2023-01-15T17:00:49.869Z,10.95
2023-01-15T17:03:21.960Z,10.85
2023-01-15T17:05:53.341Z,5.43
2023-01-15T17:08:24.874Z,6.13
2023-01-15T17:10:57.860Z,7.80
2023-01-15T17:13:34.368Z,7.85
2023-01-15T17:16:08.129Z,9.82
2023-01-15T17:18:37.388Z,7.28
2023-01-15T17:21:07.863Z,9.27
2023-01-15T17:23:41.970Z,5.88
2023-01-15T17:26:17.056Z,9.40
2023-01-15T17:28:46.408Z,6.33
2023-01-15T17:31:26.512Z,7.28
2023-01-15T17:33:55.880Z,11.30
2023-01-15T17:36:25.826Z,6.10
2023-01-15T17:38:55.079Z,5.25
2023-01-15T17:41:26.243Z,12.38
2023-01-15T17:43:55.529Z,12.77
2023-01-15T17:46:25.468Z,12.90
2023-01-15T17:48:55.058Z,12.73
2023-01-15T17:51:24.773Z,20.38
2023-01-15T17:53:54.033Z,11.60
2023-01-15T17:56:42.584Z,16.00
2023-01-15T17:59:30.787Z,20.80
2023-01-15T18:02:18.065Z,10.57
2023-01-15T18:05:07.334Z,10.70
2023-01-15T18:07:41.077Z,8.48
2023-01-15T18:10:17.475Z,10.25
2023-01-15T18:12:48.269Z,11.73
2023-01-15T18:15:17.956Z,9.10
2023-01-15T18:17:47.468Z,7.15
2023-01-15T18:20:16.922Z,12.73
2023-01-15T18:22:46.565Z,16.75
2023-01-15T18:25:16.000Z,9.60
2023-01-15T18:27:47.760Z,7.43
2023-01-15T18:30:19.412Z,7.35
2023-01-15T18:32:49.091Z,6.68
2023-01-15T18:35:18.700Z,10.85
2023-01-15T18:37:48.091Z,8.13
2023-01-15T18:40:17.318Z,6.63
2023-01-15T18:43:04.000Z,3.15
2023-01-15T18:45:52.182Z,7.65
2023-01-15T18:48:21.776Z,4.50
2023-01-15T18:50:51.380Z,8.60
2023-01-15T18:53:21.049Z,5.55
2023-01-15T18:55:51.839Z,6.82
2023-01-15T18:58:21.565Z,6.80
2023-01-15T19:00:52.613Z,7.68
2023-01-15T19:03:22.353Z,4.57
2023-01-15T19:05:51.604Z,6.80
2023-01-15T19:08:21.176Z,5.18
2023-01-15T19:10:50.463Z,4.88
2023-01-15T19:13:19.890Z,4.40
2023-01-15T19:16:06.846Z,7.88
2023-01-15T19:18:52.692Z,7.97
2023-01-15T19:21:22.986Z,5.28
2023-01-15T19:23:53.656Z,3.10
2023-01-15T19:26:23.024Z,6.65
2023-01-15T19:28:52.487Z,6.80
2023-01-15T19:31:37.268Z,4.72
2023-01-15T19:34:33.553Z,5.50
2023-01-15T19:36:59.635Z,5.50
2023-01-15T19:39:29.786Z,6.32
2023-01-15T19:42:17.709Z,5.22
2023-01-15T19:45:19.354Z,3.92
2023-01-15T19:48:03.189Z,4.47
2023-01-15T19:50:37.207Z,4.15
2023-01-15T19:53:07.913Z,6.35
2023-01-15T19:55:39.684Z,6.00
2023-01-15T19:58:10.446Z,5.43
2023-01-15T20:00:41.659Z,5.28
2023-01-15T20:03:12.914Z,6.35
2023-01-15T20:05:45.573Z,8.38
2023-01-15T20:08:18.463Z,4.57
2023-01-15T20:10:49.944Z,2.72
2023-01-15T20:13:38.207Z,6.57
2023-01-15T20:16:09.945Z,4.30
2023-01-15T20:18:39.264Z,3.80
2023-01-15T20:21:12.411Z,6.03
2023-01-15T20:23:41.785Z,4.60
2023-01-15T20:26:13.303Z,4.90
2023-01-15T20:28:43.276Z,3.53
2023-01-15T20:31:17.458Z,4.43
2023-01-15T20:33:47.339Z,5.95
2023-01-15T20:36:18.408Z,4.00
2023-01-15T20:38:47.683Z,5.50
2023-01-15T20:41:34.659Z,3.92
2023-01-15T20:44:21.262Z,3.67
2023-01-15T20:46:50.646Z,4.13
2023-01-15T20:49:25.436Z,4.03
2023-01-15T20:51:57.731Z,4.30
2023-01-15T20:54:28.149Z,8.23
2023-01-15T20:56:58.028Z,5.85
2023-01-15T20:59:27.626Z,4.97
2023-01-15T21:01:57.128Z,4.43
2023-01-15T21:04:26.815Z,7.05
2023-01-15T21:06:57.804Z,5.30
2023-01-15T21:09:27.125Z,7.03
2023-01-15T21:11:56.609Z,4.00
2023-01-15T21:14:25.719Z,3.80
2023-01-15T21:16:55.381Z,3.53
2023-01-15T21:19:25.696Z,7.85
2023-01-15T21:21:56.598Z,3.63
2023-01-15T21:24:25.914Z,7.60
2023-01-15T21:26:55.379Z,2.50
2023-01-15T21:29:24.539Z,1.60
2023-01-15T21:31:54.140Z,4.65
2023-01-15T21:34:23.353Z,3.78
2023-01-15T21:36:52.881Z,5.15
2023-01-15T21:39:23.437Z,6.57
2023-01-15T21:42:10.550Z,4.53
2023-01-15T21:44:43.383Z,3.28
2023-01-15T21:47:14.808Z,2.75
2023-01-15T21:49:44.678Z,3.95
2023-01-15T21:52:16.890Z,4.13
2023-01-15T21:54:48.063Z,3.15
2023-01-15T21:57:19.113Z,2.20
2023-01-15T21:59:48.303Z,3.20
2023-01-15T22:02:21.845Z,3.38
2023-01-15T22:04:51.449Z,3.50
2023-01-15T22:07:21.261Z,7.25
2023-01-15T22:09:52.402Z,2.10
2023-01-15T22:12:22.012Z,3.33
2023-01-15T22:14:51.142Z,3.45
2023-01-15T22:17:20.946Z,5.55
2023-01-15T22:19:51.408Z,1.75
2023-01-15T22:22:21.054Z,6.40
2023-01-15T22:24:51.636Z,3.67
2023-01-15T22:27:21.088Z,2.47
2023-01-15T22:29:50.379Z,3.03
2023-01-15T22:32:19.780Z,5.55
2023-01-15T22:34:49.592Z,3.85
2023-01-15T22:37:19.317Z,3.15
2023-01-15T22:39:49.391Z,1.58
2023-01-15T22:42:27.610Z,5.38
2023-01-15T22:45:00.222Z,2.92
2023-01-15T22:47:30.631Z,2.10
2023-01-15T22:49:59.934Z,4.60
2023-01-15T22:52:29.455Z,3.00
2023-01-15T22:54:58.671Z,4.65
2023-01-15T22:57:31.105Z,2.17
2023-01-15T23:00:00.503Z,5.05
2023-01-15T23:02:47.452Z,7.15
2023-01-15T23:05:16.641Z,1.75
2023-01-15T23:07:46.083Z,2.05
2023-01-15T23:10:16.323Z,2.00
2023-01-15T23:12:47.052Z,3.33
2023-01-15T23:15:16.461Z,4.88
2023-01-15T23:17:46.204Z,5.95
2023-01-15T23:20:15.635Z,2.42
2023-01-15T23:22:45.290Z,3.78
2023-01-15T23:25:14.485Z,1.65
2023-01-15T23:27:43.895Z,3.17
2023-01-15T23:30:15.081Z,2.45
2023-01-15T23:32:44.450Z,2.42
2023-01-15T23:35:13.529Z,5.95
2023-01-15T23:37:43.035Z,2.58
2023-01-15T23:40:13.261Z,4.45
2023-01-15T23:43:00.255Z,3.08
2023-01-15T23:45:48.673Z,2.10
2023-01-15T23:48:18.989Z,3.03
2023-01-15T23:50:48.262Z,9.00
2023-01-15T23:53:17.623Z,2.17
2023-01-15T23:55:46.790Z,1.77
2023-01-15T23:58:16.212Z,2.75
